sensor_id;sensor_type;location;lat;lon;timestamp;temperature;humidity
78536;SHT31;67829;51.968;5.684;2024-01-25T00:01:49;10.2;65.6
78536;SHT31;67829;51.968;5.684;2024-01-25T00:04:17;10.1;65.7
78536;SHT31;67829;51.968;5.684;2024-01-25T00:06:45;10.1;65.7
78536;SHT31;67829;51.968;5.684;2024-01-25T00:09:14;10.1;65.7
78536;SHT31;67829;51.968;5.684;2024-01-25T00:11:43;10.1;65.7
78536;SHT31;67829;51.968;5.684;2024-01-25T00:14:11;10.0;65.8
78536;SHT31;67829;51.968;5.684;2024-01-25T00:16:42;10.0;65.9
78536;SHT31;67829;51.968;5.684;2024-01-25T00:19:11;10.0;66.0
78536;SHT31;67829;51.968;5.684;2024-01-25T00:21:43;9.9;66.0
78536;SHT31;67829;51.968;5.684;2024-01-25T00:24:13;9.9;66.0
78536;SHT31;67829;51.968;5.684;2024-01-25T00:26:42;9.9;65.7
78536;SHT31;67829;51.968;5.684;2024-01-25T00:29:10;9.8;65.6
78536;SHT31;67829;51.968;5.684;2024-01-25T00:31:39;9.8;65.3
78536;SHT31;67829;51.968;5.684;2024-01-25T00:34:08;9.8;65.4
78536;SHT31;67829;51.968;5.684;2024-01-25T00:36:37;9.8;65.5
78536;SHT31;67829;51.968;5.684;2024-01-25T00:39:10;9.7;65.7
78536;SHT31;67829;51.968;5.684;2024-01-25T00:41:40;9.7;65.6
78536;SHT31;67829;51.968;5.684;2024-01-25T00:44:12;9.7;65.5
78536;SHT31;67829;51.968;5.684;2024-01-25T00:46:42;9.7;65.6
78536;SHT31;67829;51.968;5.684;2024-01-25T00:49:14;9.6;65.8
78536;SHT31;67829;51.968;5.684;2024-01-25T00:51:46;9.6;65.8
78536;SHT31;67829;51.968;5.684;2024-01-25T00:54:16;9.6;65.8
78536;SHT31;67829;51.968;5.684;2024-01-25T00:56:45;9.6;66.1
78536;SHT31;67829;51.968;5.684;2024-01-25T00:59:18;9.5;66.0
78536;SHT31;67829;51.968;5.684;2024-01-25T01:01:48;9.5;66.1
78536;SHT31;67829;51.968;5.684;2024-01-25T01:04:17;9.5;66.2
78536;SHT31;67829;51.968;5.684;2024-01-25T01:06:47;9.5;66.1
78536;SHT31;67829;51.968;5.684;2024-01-25T01:09:16;9.4;66.2
78536;SHT31;67829;51.968;5.684;2024-01-25T01:11:46;9.4;66.3
78536;SHT31;67829;51.968;5.684;2024-01-25T01:14:16;9.4;66.2
78536;SHT31;67829;51.968;5.684;2024-01-25T01:16:45;9.4;66.2
78536;SHT31;67829;51.968;5.684;2024-01-25T01:19:14;9.4;66.2
78536;SHT31;67829;51.968;5.684;2024-01-25T01:21:42;9.3;66.3
78536;SHT31;67829;51.968;5.684;2024-01-25T01:24:12;9.3;66.4
78536;SHT31;67829;51.968;5.684;2024-01-25T01:26:40;9.3;66.2
78536;SHT31;67829;51.968;5.684;2024-01-25T01:29:10;9.2;66.6
78536;SHT31;67829;51.968;5.684;2024-01-25T01:31:38;9.2;66.7
78536;SHT31;67829;51.968;5.684;2024-01-25T01:34:10;9.2;67.0
78536;SHT31;67829;51.968;5.684;2024-01-25T01:36:39;9.1;66.9
78536;SHT31;67829;51.968;5.684;2024-01-25T01:39:08;9.1;66.7
78536;SHT31;67829;51.968;5.684;2024-01-25T01:41:36;9.1;67.0
78536;SHT31;67829;51.968;5.684;2024-01-25T01:44:06;9.0;67.4
78536;SHT31;67829;51.968;5.684;2024-01-25T01:46:36;9.0;67.4
78536;SHT31;67829;51.968;5.684;2024-01-25T01:49:07;8.9;67.6
78536;SHT31;67829;51.968;5.684;2024-01-25T01:51:38;8.9;67.5
78536;SHT31;67829;51.968;5.684;2024-01-25T01:54:11;8.9;67.7
78536;SHT31;67829;51.968;5.684;2024-01-25T01:56:40;8.9;67.5
78536;SHT31;67829;51.968;5.684;2024-01-25T01:59:13;8.8;67.8
78536;SHT31;67829;51.968;5.684;2024-01-25T02:01:43;8.8;67.8
78536;SHT31;67829;51.968;5.684;2024-01-25T02:04:12;8.8;67.8
78536;SHT31;67829;51.968;5.684;2024-01-25T02:06:42;8.7;68.2
78536;SHT31;67829;51.968;5.684;2024-01-25T02:09:12;8.7;68.5
78536;SHT31;67829;51.968;5.684;2024-01-25T02:11:41;8.7;68.2
78536;SHT31;67829;51.968;5.684;2024-01-25T02:14:10;8.6;67.9
78536;SHT31;67829;51.968;5.684;2024-01-25T02:16:41;8.6;68.3
78536;SHT31;67829;51.968;5.684;2024-01-25T02:19:13;8.6;68.1
78536;SHT31;67829;51.968;5.684;2024-01-25T02:21:41;8.6;67.9
78536;SHT31;67829;51.968;5.684;2024-01-25T02:24:10;8.6;68.0
78536;SHT31;67829;51.968;5.684;2024-01-25T02:26:38;8.5;67.6
78536;SHT31;67829;51.968;5.684;2024-01-25T02:29:07;8.5;67.4
78536;SHT31;67829;51.968;5.684;2024-01-25T02:31:36;8.5;67.6
78536;SHT31;67829;51.968;5.684;2024-01-25T02:34:04;8.4;67.8
78536;SHT31;67829;51.968;5.684;2024-01-25T02:36:33;8.4;68.2
78536;SHT31;67829;51.968;5.684;2024-01-25T02:39:02;8.4;68.4
78536;SHT31;67829;51.968;5.684;2024-01-25T02:41:32;8.4;68.2
78536;SHT31;67829;51.968;5.684;2024-01-25T02:44:01;8.3;68.3
78536;SHT31;67829;51.968;5.684;2024-01-25T02:46:30;8.3;68.8
78536;SHT31;67829;51.968;5.684;2024-01-25T02:48:58;8.3;68.7
78536;SHT31;67829;51.968;5.684;2024-01-25T02:51:27;8.3;68.7
78536;SHT31;67829;51.968;5.684;2024-01-25T02:53:56;8.2;68.7
78536;SHT31;67829;51.968;5.684;2024-01-25T02:56:24;8.2;68.9
78536;SHT31;67829;51.968;5.684;2024-01-25T02:58:58;8.2;69.4
78536;SHT31;67829;51.968;5.684;2024-01-25T03:01:26;8.2;69.4
78536;SHT31;67829;51.968;5.684;2024-01-25T03:03:55;8.2;69.7
78536;SHT31;67829;51.968;5.684;2024-01-25T03:06:26;8.1;69.7
78536;SHT31;67829;51.968;5.684;2024-01-25T03:08:54;8.1;69.8
78536;SHT31;67829;51.968;5.684;2024-01-25T03:11:23;8.1;70.1
78536;SHT31;67829;51.968;5.684;2024-01-25T03:13:51;8.1;70.6
78536;SHT31;67829;51.968;5.684;2024-01-25T03:16:19;8.1;70.6
78536;SHT31;67829;51.968;5.684;2024-01-25T03:18:48;8.1;70.9
78536;SHT31;67829;51.968;5.684;2024-01-25T03:21:17;8.0;71.0
78536;SHT31;67829;51.968;5.684;2024-01-25T03:23:47;8.0;71.4
78536;SHT31;67829;51.968;5.684;2024-01-25T03:26:16;8.0;71.2
78536;SHT31;67829;51.968;5.684;2024-01-25T03:28:44;8.0;71.0
78536;SHT31;67829;51.968;5.684;2024-01-25T03:31:14;8.0;71.0
78536;SHT31;67829;51.968;5.684;2024-01-25T03:33:45;8.0;70.7
78536;SHT31;67829;51.968;5.684;2024-01-25T03:36:15;8.0;70.9
78536;SHT31;67829;51.968;5.684;2024-01-25T03:38:44;8.0;71.4
78536;SHT31;67829;51.968;5.684;2024-01-25T03:41:12;8.0;71.5
78536;SHT31;67829;51.968;5.684;2024-01-25T03:43:41;8.0;71.5
78536;SHT31;67829;51.968;5.684;2024-01-25T03:46:11;8.0;71.6
78536;SHT31;67829;51.968;5.684;2024-01-25T03:48:40;8.0;71.6
78536;SHT31;67829;51.968;5.684;2024-01-25T03:51:09;8.0;71.4
78536;SHT31;67829;51.968;5.684;2024-01-25T03:53:38;8.0;71.4
78536;SHT31;67829;51.968;5.684;2024-01-25T03:56:13;8.0;71.1
78536;SHT31;67829;51.968;5.684;2024-01-25T03:58:43;8.0;71.1
78536;SHT31;67829;51.968;5.684;2024-01-25T04:01:12;8.0;71.2
78536;SHT31;67829;51.968;5.684;2024-01-25T04:03:41;7.9;71.3
78536;SHT31;67829;51.968;5.684;2024-01-25T04:06:09;7.9;71.4
78536;SHT31;67829;51.968;5.684;2024-01-25T04:08:38;7.9;71.2
78536;SHT31;67829;51.968;5.684;2024-01-25T04:11:07;7.9;70.6
78536;SHT31;67829;51.968;5.684;2024-01-25T04:13:36;7.9;69.7
78536;SHT31;67829;51.968;5.684;2024-01-25T04:16:06;7.9;69.3
78536;SHT31;67829;51.968;5.684;2024-01-25T04:18:35;7.9;69.3
78536;SHT31;67829;51.968;5.684;2024-01-25T04:21:03;7.8;69.0
78536;SHT31;67829;51.968;5.684;2024-01-25T04:23:32;7.8;68.4
78536;SHT31;67829;51.968;5.684;2024-01-25T04:26:00;7.8;68.5
78536;SHT31;67829;51.968;5.684;2024-01-25T04:28:29;7.7;68.5
78536;SHT31;67829;51.968;5.684;2024-01-25T04:30:57;7.7;69.2
78536;SHT31;67829;51.968;5.684;2024-01-25T04:33:26;7.7;69.7
78536;SHT31;67829;51.968;5.684;2024-01-25T04:35:54;7.6;70.0
78536;SHT31;67829;51.968;5.684;2024-01-25T04:38:22;7.6;70.1
78536;SHT31;67829;51.968;5.684;2024-01-25T04:40:51;7.6;69.9
78536;SHT31;67829;51.968;5.684;2024-01-25T04:43:19;7.5;69.7
78536;SHT31;67829;51.968;5.684;2024-01-25T04:45:48;7.5;70.1
78536;SHT31;67829;51.968;5.684;2024-01-25T04:48:16;7.5;70.0
78536;SHT31;67829;51.968;5.684;2024-01-25T04:50:44;7.5;70.4
78536;SHT31;67829;51.968;5.684;2024-01-25T04:53:13;7.4;70.9
78536;SHT31;67829;51.968;5.684;2024-01-25T04:55:41;7.4;71.1
78536;SHT31;67829;51.968;5.684;2024-01-25T04:58:10;7.4;71.7
78536;SHT31;67829;51.968;5.684;2024-01-25T05:00:40;7.4;72.0
78536;SHT31;67829;51.968;5.684;2024-01-25T05:03:09;7.3;71.8
78536;SHT31;67829;51.968;5.684;2024-01-25T05:05:37;7.3;71.7
78536;SHT31;67829;51.968;5.684;2024-01-25T05:08:07;7.3;71.5
78536;SHT31;67829;51.968;5.684;2024-01-25T05:10:35;7.3;71.1
78536;SHT31;67829;51.968;5.684;2024-01-25T05:13:04;7.3;71.5
78536;SHT31;67829;51.968;5.684;2024-01-25T05:15:33;7.3;71.4
78536;SHT31;67829;51.968;5.684;2024-01-25T05:18:02;7.3;71.6
78536;SHT31;67829;51.968;5.684;2024-01-25T05:20:31;7.3;72.2
78536;SHT31;67829;51.968;5.684;2024-01-25T05:23:03;7.2;72.0
78536;SHT31;67829;51.968;5.684;2024-01-25T05:25:32;7.2;71.7
78536;SHT31;67829;51.968;5.684;2024-01-25T05:28:00;7.2;72.0
78536;SHT31;67829;51.968;5.684;2024-01-25T05:30:29;7.2;72.4
78536;SHT31;67829;51.968;5.684;2024-01-25T05:32:58;7.2;72.9
78536;SHT31;67829;51.968;5.684;2024-01-25T05:35:27;7.2;72.6
78536;SHT31;67829;51.968;5.684;2024-01-25T05:37:56;7.2;72.7
78536;SHT31;67829;51.968;5.684;2024-01-25T05:40:24;7.1;73.1
78536;SHT31;67829;51.968;5.684;2024-01-25T05:42:53;7.1;73.1
78536;SHT31;67829;51.968;5.684;2024-01-25T05:45:21;7.1;72.9
78536;SHT31;67829;51.968;5.684;2024-01-25T05:47:51;7.1;72.6
78536;SHT31;67829;51.968;5.684;2024-01-25T05:50:19;7.1;72.6
78536;SHT31;67829;51.968;5.684;2024-01-25T05:52:48;7.1;72.4
78536;SHT31;67829;51.968;5.684;2024-01-25T05:55:16;7.1;72.3
78536;SHT31;67829;51.968;5.684;2024-01-25T05:57:45;7.1;72.1
78536;SHT31;67829;51.968;5.684;2024-01-25T06:00:17;7.1;71.8
78536;SHT31;67829;51.968;5.684;2024-01-25T06:02:46;7.1;71.8
78536;SHT31;67829;51.968;5.684;2024-01-25T06:05:15;7.1;71.7
78536;SHT31;67829;51.968;5.684;2024-01-25T06:07:43;7.1;71.7
78536;SHT31;67829;51.968;5.684;2024-01-25T06:10:12;7.1;71.7
78536;SHT31;67829;51.968;5.684;2024-01-25T06:12:40;7.1;71.7
78536;SHT31;67829;51.968;5.684;2024-01-25T06:15:09;7.1;71.9
78536;SHT31;67829;51.968;5.684;2024-01-25T06:17:38;7.0;71.5
78536;SHT31;67829;51.968;5.684;2024-01-25T06:20:11;7.0;71.5
78536;SHT31;67829;51.968;5.684;2024-01-25T06:22:41;7.0;71.4
78536;SHT31;67829;51.968;5.684;2024-01-25T06:25:12;7.0;71.1
78536;SHT31;67829;51.968;5.684;2024-01-25T06:27:41;7.0;70.9
78536;SHT31;67829;51.968;5.684;2024-01-25T06:30:11;7.0;71.1
78536;SHT31;67829;51.968;5.684;2024-01-25T06:32:40;7.0;71.5
78536;SHT31;67829;51.968;5.684;2024-01-25T06:35:11;6.9;71.7
78536;SHT31;67829;51.968;5.684;2024-01-25T06:37:40;6.9;71.8
78536;SHT31;67829;51.968;5.684;2024-01-25T06:40:12;6.9;72.5
78536;SHT31;67829;51.968;5.684;2024-01-25T06:42:41;6.9;72.7
78536;SHT31;67829;51.968;5.684;2024-01-25T06:45:13;6.9;72.7
78536;SHT31;67829;51.968;5.684;2024-01-25T06:47:42;6.9;72.3
78536;SHT31;67829;51.968;5.684;2024-01-25T06:50:11;6.9;71.7
78536;SHT31;67829;51.968;5.684;2024-01-25T06:52:40;6.9;71.0
78536;SHT31;67829;51.968;5.684;2024-01-25T06:55:09;6.9;70.7
78536;SHT31;67829;51.968;5.684;2024-01-25T06:57:38;6.9;70.4
78536;SHT31;67829;51.968;5.684;2024-01-25T07:00:11;6.8;70.2
78536;SHT31;67829;51.968;5.684;2024-01-25T07:02:42;6.8;70.6
78536;SHT31;67829;51.968;5.684;2024-01-25T07:05:11;6.8;70.7
78536;SHT31;67829;51.968;5.684;2024-01-25T07:07:39;6.8;70.7
78536;SHT31;67829;51.968;5.684;2024-01-25T07:10:08;6.9;70.4
78536;SHT31;67829;51.968;5.684;2024-01-25T07:12:37;6.9;70.6
78536;SHT31;67829;51.968;5.684;2024-01-25T07:15:06;6.9;70.8
78536;SHT31;67829;51.968;5.684;2024-01-25T07:17:36;6.9;71.1
78536;SHT31;67829;51.968;5.684;2024-01-25T07:20:06;6.9;71.4
78536;SHT31;67829;51.968;5.684;2024-01-25T07:22:35;6.9;71.2
78536;SHT31;67829;51.968;5.684;2024-01-25T07:25:05;6.9;70.6
78536;SHT31;67829;51.968;5.684;2024-01-25T07:27:34;6.9;70.0
78536;SHT31;67829;51.968;5.684;2024-01-25T07:30:03;6.9;69.8
78536;SHT31;67829;51.968;5.684;2024-01-25T07:32:32;6.9;70.1
78536;SHT31;67829;51.968;5.684;2024-01-25T07:35:05;6.9;70.7
78536;SHT31;67829;51.968;5.684;2024-01-25T07:37:38;6.8;71.3
78536;SHT31;67829;51.968;5.684;2024-01-25T07:40:08;6.8;71.6
78536;SHT31;67829;51.968;5.684;2024-01-25T07:42:37;6.8;72.2
78536;SHT31;67829;51.968;5.684;2024-01-25T07:45:07;6.8;72.7
78536;SHT31;67829;51.968;5.684;2024-01-25T07:47:36;6.8;72.7
78536;SHT31;67829;51.968;5.684;2024-01-25T07:50:05;6.8;73.1
78536;SHT31;67829;51.968;5.684;2024-01-25T07:52:34;6.9;73.6
78536;SHT31;67829;51.968;5.684;2024-01-25T07:55:03;6.9;73.6
78536;SHT31;67829;51.968;5.684;2024-01-25T07:57:32;6.9;73.6
78536;SHT31;67829;51.968;5.684;2024-01-25T08:00:00;6.9;73.1
78536;SHT31;67829;51.968;5.684;2024-01-25T08:02:31;6.9;72.7
78536;SHT31;67829;51.968;5.684;2024-01-25T08:05:01;7.0;72.2
78536;SHT31;67829;51.968;5.684;2024-01-25T08:07:32;7.0;71.8
78536;SHT31;67829;51.968;5.684;2024-01-25T08:10:01;7.0;71.8
78536;SHT31;67829;51.968;5.684;2024-01-25T08:12:31;7.0;72.0
78536;SHT31;67829;51.968;5.684;2024-01-25T08:14:59;7.0;72.3
78536;SHT31;67829;51.968;5.684;2024-01-25T08:17:28;7.0;72.5
78536;SHT31;67829;51.968;5.684;2024-01-25T08:19:57;7.0;73.0
78536;SHT31;67829;51.968;5.684;2024-01-25T08:22:25;7.0;73.4
78536;SHT31;67829;51.968;5.684;2024-01-25T08:24:56;7.0;73.5
78536;SHT31;67829;51.968;5.684;2024-01-25T08:27:25;7.0;72.9
78536;SHT31;67829;51.968;5.684;2024-01-25T08:29:53;7.0;73.0
78536;SHT31;67829;51.968;5.684;2024-01-25T08:32:21;7.1;72.8
78536;SHT31;67829;51.968;5.684;2024-01-25T08:34:50;7.1;72.7
78536;SHT31;67829;51.968;5.684;2024-01-25T08:37:18;7.1;72.6
78536;SHT31;67829;51.968;5.684;2024-01-25T08:39:47;7.1;72.5
78536;SHT31;67829;51.968;5.684;2024-01-25T08:42:18;7.1;72.7
78536;SHT31;67829;51.968;5.684;2024-01-25T08:44:48;7.1;72.9
78536;SHT31;67829;51.968;5.684;2024-01-25T08:47:18;7.1;73.3
78536;SHT31;67829;51.968;5.684;2024-01-25T08:49:46;7.1;73.3
78536;SHT31;67829;51.968;5.684;2024-01-25T08:52:15;7.1;73.4
78536;SHT31;67829;51.968;5.684;2024-01-25T08:54:46;7.2;73.5
78536;SHT31;67829;51.968;5.684;2024-01-25T08:57:14;7.2;73.8
78536;SHT31;67829;51.968;5.684;2024-01-25T08:59:46;7.2;73.7
78536;SHT31;67829;51.968;5.684;2024-01-25T09:02:14;7.2;73.6
78536;SHT31;67829;51.968;5.684;2024-01-25T09:04:43;7.2;73.7
78536;SHT31;67829;51.968;5.684;2024-01-25T09:07:11;7.3;73.6
78536;SHT31;67829;51.968;5.684;2024-01-25T09:09:40;7.3;73.6
78536;SHT31;67829;51.968;5.684;2024-01-25T09:12:08;7.3;73.4
78536;SHT31;67829;51.968;5.684;2024-01-25T09:14:38;7.4;73.5
78536;SHT31;67829;51.968;5.684;2024-01-25T09:17:08;7.4;73.9
78536;SHT31;67829;51.968;5.684;2024-01-25T09:19:37;7.4;74.2
78536;SHT31;67829;51.968;5.684;2024-01-25T09:22:06;7.5;73.9
78536;SHT31;67829;51.968;5.684;2024-01-25T09:24:36;7.5;73.9
78536;SHT31;67829;51.968;5.684;2024-01-25T09:27:06;7.6;74.0
78536;SHT31;67829;51.968;5.684;2024-01-25T09:29:35;7.6;73.9
78536;SHT31;67829;51.968;5.684;2024-01-25T09:32:05;7.6;73.5
78536;SHT31;67829;51.968;5.684;2024-01-25T09:34:35;7.7;73.4
78536;SHT31;67829;51.968;5.684;2024-01-25T09:37:05;7.7;73.3
78536;SHT31;67829;51.968;5.684;2024-01-25T09:39:34;7.8;73.4
78536;SHT31;67829;51.968;5.684;2024-01-25T09:42:05;7.8;73.5
78536;SHT31;67829;51.968;5.684;2024-01-25T09:44:34;7.9;73.3
78536;SHT31;67829;51.968;5.684;2024-01-25T09:47:03;7.9;73.4
78536;SHT31;67829;51.968;5.684;2024-01-25T09:49:34;8.0;73.3
78536;SHT31;67829;51.968;5.684;2024-01-25T09:52:04;8.0;73.3
78536;SHT31;67829;51.968;5.684;2024-01-25T09:54:35;8.1;73.4
78536;SHT31;67829;51.968;5.684;2024-01-25T09:57:08;8.1;73.0
78536;SHT31;67829;51.968;5.684;2024-01-25T09:59:40;8.2;73.0
78536;SHT31;67829;51.968;5.684;2024-01-25T10:02:09;8.2;73.1
78536;SHT31;67829;51.968;5.684;2024-01-25T10:04:39;8.3;73.1
78536;SHT31;67829;51.968;5.684;2024-01-25T10:07:10;8.3;73.3
78536;SHT31;67829;51.968;5.684;2024-01-25T10:09:42;8.3;73.5
78536;SHT31;67829;51.968;5.684;2024-01-25T10:12:10;8.3;73.8
78536;SHT31;67829;51.968;5.684;2024-01-25T10:14:39;8.4;73.7
78536;SHT31;67829;51.968;5.684;2024-01-25T10:17:07;8.4;73.7
78536;SHT31;67829;51.968;5.684;2024-01-25T10:19:36;8.4;73.5
78536;SHT31;67829;51.968;5.684;2024-01-25T10:22:07;8.5;73.3
78536;SHT31;67829;51.968;5.684;2024-01-25T10:24:39;8.5;73.1
78536;SHT31;67829;51.968;5.684;2024-01-25T10:27:08;8.5;73.1
78536;SHT31;67829;51.968;5.684;2024-01-25T10:29:37;8.6;73.2
78536;SHT31;67829;51.968;5.684;2024-01-25T10:32:08;8.6;73.0
78536;SHT31;67829;51.968;5.684;2024-01-25T10:34:37;8.6;73.3
78536;SHT31;67829;51.968;5.684;2024-01-25T10:37:07;8.6;73.7
78536;SHT31;67829;51.968;5.684;2024-01-25T10:39:39;8.7;73.5
78536;SHT31;67829;51.968;5.684;2024-01-25T10:42:11;8.7;73.5
78536;SHT31;67829;51.968;5.684;2024-01-25T10:44:39;8.8;73.6
78536;SHT31;67829;51.968;5.684;2024-01-25T10:47:09;8.8;73.5
78536;SHT31;67829;51.968;5.684;2024-01-25T10:49:41;8.9;72.9
78536;SHT31;67829;51.968;5.684;2024-01-25T10:52:09;8.9;72.9
78536;SHT31;67829;51.968;5.684;2024-01-25T10:54:39;8.9;72.7
78536;SHT31;67829;51.968;5.684;2024-01-25T10:57:08;9.0;72.5
78536;SHT31;67829;51.968;5.684;2024-01-25T10:59:37;9.0;72.2
78536;SHT31;67829;51.968;5.684;2024-01-25T11:02:07;9.1;72.1
78536;SHT31;67829;51.968;5.684;2024-01-25T11:04:36;9.1;72.1
78536;SHT31;67829;51.968;5.684;2024-01-25T11:07:08;9.1;71.9
78536;SHT31;67829;51.968;5.684;2024-01-25T11:09:38;9.1;72.4
78536;SHT31;67829;51.968;5.684;2024-01-25T11:12:13;9.2;72.7
78536;SHT31;67829;51.968;5.684;2024-01-25T11:14:41;9.2;72.3
78536;SHT31;67829;51.968;5.684;2024-01-25T11:17:21;9.3;72.3
78536;SHT31;67829;51.968;5.684;2024-01-25T11:19:51;9.3;72.3
78536;SHT31;67829;51.968;5.684;2024-01-25T11:22:20;9.3;72.4
78536;SHT31;67829;51.968;5.684;2024-01-25T11:24:51;9.4;72.3
78536;SHT31;67829;51.968;5.684;2024-01-25T11:27:22;9.4;71.9
78536;SHT31;67829;51.968;5.684;2024-01-25T11:29:51;9.5;72.3
78536;SHT31;67829;51.968;5.684;2024-01-25T11:32:20;9.5;72.3
78536;SHT31;67829;51.968;5.684;2024-01-25T11:34:59;9.5;71.9
78536;SHT31;67829;51.968;5.684;2024-01-25T11:37:27;9.6;71.5
78536;SHT31;67829;51.968;5.684;2024-01-25T11:39:56;9.6;71.1
78536;SHT31;67829;51.968;5.684;2024-01-25T11:42:24;9.6;71.2
78536;SHT31;67829;51.968;5.684;2024-01-25T11:44:57;9.7;71.4
78536;SHT31;67829;51.968;5.684;2024-01-25T11:47:26;9.7;71.4
78536;SHT31;67829;51.968;5.684;2024-01-25T11:49:54;9.8;71.2
78536;SHT31;67829;51.968;5.684;2024-01-25T11:52:23;9.8;71.4
78536;SHT31;67829;51.968;5.684;2024-01-25T11:54:52;9.9;70.8
78536;SHT31;67829;51.968;5.684;2024-01-25T11:57:21;9.9;70.4
78536;SHT31;67829;51.968;5.684;2024-01-25T11:59:52;10.0;70.5
78536;SHT31;67829;51.968;5.684;2024-01-25T12:02:21;10.0;70.2
78536;SHT31;67829;51.968;5.684;2024-01-25T12:04:51;10.1;70.1
78536;SHT31;67829;51.968;5.684;2024-01-25T12:07:22;10.1;70.6
78536;SHT31;67829;51.968;5.684;2024-01-25T12:10:03;10.1;70.4
78536;SHT31;67829;51.968;5.684;2024-01-25T12:12:35;10.2;70.1
78536;SHT31;67829;51.968;5.684;2024-01-25T12:15:05;10.2;69.8
78536;SHT31;67829;51.968;5.684;2024-01-25T12:17:35;10.2;69.6
78536;SHT31;67829;51.968;5.684;2024-01-25T12:20:06;10.2;69.4
78536;SHT31;67829;51.968;5.684;2024-01-25T12:22:39;10.2;69.4
78536;SHT31;67829;51.968;5.684;2024-01-25T12:25:09;10.2;69.7
78536;SHT31;67829;51.968;5.684;2024-01-25T12:27:40;10.2;69.9
78536;SHT31;67829;51.968;5.684;2024-01-25T12:30:12;10.2;69.7
78536;SHT31;67829;51.968;5.684;2024-01-25T12:32:41;10.3;69.9
78536;SHT31;67829;51.968;5.684;2024-01-25T12:35:11;10.3;70.4
78536;SHT31;67829;51.968;5.684;2024-01-25T12:37:40;10.3;69.9
78536;SHT31;67829;51.968;5.684;2024-01-25T12:40:09;10.3;69.8
78536;SHT31;67829;51.968;5.684;2024-01-25T12:42:40;10.4;69.8
78536;SHT31;67829;51.968;5.684;2024-01-25T12:45:09;10.4;69.4
78536;SHT31;67829;51.968;5.684;2024-01-25T12:47:38;10.4;69.5
78536;SHT31;67829;51.968;5.684;2024-01-25T12:50:10;10.5;69.4
78536;SHT31;67829;51.968;5.684;2024-01-25T12:52:40;10.5;69.3
78536;SHT31;67829;51.968;5.684;2024-01-25T12:55:09;10.5;69.3
78536;SHT31;67829;51.968;5.684;2024-01-25T12:57:38;10.5;69.6
78536;SHT31;67829;51.968;5.684;2024-01-25T13:00:07;10.5;69.6
78536;SHT31;67829;51.968;5.684;2024-01-25T13:02:37;10.6;70.0
78536;SHT31;67829;51.968;5.684;2024-01-25T13:05:06;10.6;69.7
78536;SHT31;67829;51.968;5.684;2024-01-25T13:07:35;10.6;69.7
78536;SHT31;67829;51.968;5.684;2024-01-25T13:10:04;10.7;69.0
78536;SHT31;67829;51.968;5.684;2024-01-25T13:12:33;10.7;69.0
78536;SHT31;67829;51.968;5.684;2024-01-25T13:15:03;10.7;69.0
78536;SHT31;67829;51.968;5.684;2024-01-25T13:17:34;10.7;68.7
78536;SHT31;67829;51.968;5.684;2024-01-25T13:20:04;10.8;68.7
78536;SHT31;67829;51.968;5.684;2024-01-25T13:22:35;10.8;68.5
78536;SHT31;67829;51.968;5.684;2024-01-25T13:25:04;10.8;68.7
78536;SHT31;67829;51.968;5.684;2024-01-25T13:27:32;10.8;68.7
78536;SHT31;67829;51.968;5.684;2024-01-25T13:30:01;10.8;68.8
78536;SHT31;67829;51.968;5.684;2024-01-25T13:32:32;10.8;68.7
78536;SHT31;67829;51.968;5.684;2024-01-25T13:35:01;10.8;68.8
78536;SHT31;67829;51.968;5.684;2024-01-25T13:37:30;10.9;68.8
78536;SHT31;67829;51.968;5.684;2024-01-25T13:39:58;10.9;68.7
78536;SHT31;67829;51.968;5.684;2024-01-25T13:42:26;10.9;68.7
78536;SHT31;67829;51.968;5.684;2024-01-25T13:44:55;10.9;68.6
78536;SHT31;67829;51.968;5.684;2024-01-25T13:47:23;10.9;68.7
78536;SHT31;67829;51.968;5.684;2024-01-25T13:49:52;10.9;68.6
78536;SHT31;67829;51.968;5.684;2024-01-25T13:52:20;10.9;68.6
78536;SHT31;67829;51.968;5.684;2024-01-25T13:54:49;10.9;68.6
78536;SHT31;67829;51.968;5.684;2024-01-25T13:57:19;10.9;68.5
78536;SHT31;67829;51.968;5.684;2024-01-25T13:59:50;10.9;68.5
78536;SHT31;67829;51.968;5.684;2024-01-25T14:02:19;10.9;68.5
78536;SHT31;67829;51.968;5.684;2024-01-25T14:04:47;10.9;68.5
78536;SHT31;67829;51.968;5.684;2024-01-25T14:07:16;10.9;68.7
78536;SHT31;67829;51.968;5.684;2024-01-25T14:09:48;10.9;68.6
78536;SHT31;67829;51.968;5.684;2024-01-25T14:12:20;10.9;68.4
78536;SHT31;67829;51.968;5.684;2024-01-25T14:14:48;10.9;68.4
78536;SHT31;67829;51.968;5.684;2024-01-25T14:17:17;10.9;68.6
78536;SHT31;67829;51.968;5.684;2024-01-25T14:19:45;10.9;68.5
78536;SHT31;67829;51.968;5.684;2024-01-25T14:22:14;10.9;68.5
78536;SHT31;67829;51.968;5.684;2024-01-25T14:24:43;10.9;68.6
78536;SHT31;67829;51.968;5.684;2024-01-25T14:27:12;10.9;68.4
78536;SHT31;67829;51.968;5.684;2024-01-25T14:29:40;10.9;68.3
78536;SHT31;67829;51.968;5.684;2024-01-25T14:32:09;10.9;68.7
78536;SHT31;67829;51.968;5.684;2024-01-25T14:34:37;10.9;68.8
78536;SHT31;67829;51.968;5.684;2024-01-25T14:37:06;10.9;68.9
78536;SHT31;67829;51.968;5.684;2024-01-25T14:39:36;10.9;68.9
78536;SHT31;67829;51.968;5.684;2024-01-25T14:42:11;10.9;68.8
78536;SHT31;67829;51.968;5.684;2024-01-25T14:44:42;10.9;69.1
78536;SHT31;67829;51.968;5.684;2024-01-25T14:47:11;10.9;69.1
78536;SHT31;67829;51.968;5.684;2024-01-25T14:49:45;10.9;69.1
78536;SHT31;67829;51.968;5.684;2024-01-25T14:52:13;10.9;69.0
78536;SHT31;67829;51.968;5.684;2024-01-25T14:54:42;10.9;68.9
78536;SHT31;67829;51.968;5.684;2024-01-25T14:57:11;10.9;69.1
78536;SHT31;67829;51.968;5.684;2024-01-25T14:59:40;10.9;69.0
78536;SHT31;67829;51.968;5.684;2024-01-25T15:02:09;10.9;69.0
78536;SHT31;67829;51.968;5.684;2024-01-25T15:04:38;10.9;68.9
78536;SHT31;67829;51.968;5.684;2024-01-25T15:07:08;10.9;68.9
78536;SHT31;67829;51.968;5.684;2024-01-25T15:09:37;10.9;69.1
78536;SHT31;67829;51.968;5.684;2024-01-25T15:12:08;10.9;69.3
78536;SHT31;67829;51.968;5.684;2024-01-25T15:14:36;10.9;69.5
78536;SHT31;67829;51.968;5.684;2024-01-25T15:17:05;10.9;69.8
78536;SHT31;67829;51.968;5.684;2024-01-25T15:19:34;10.9;69.9
78536;SHT31;67829;51.968;5.684;2024-01-25T15:22:04;10.9;70.2
78536;SHT31;67829;51.968;5.684;2024-01-25T15:24:36;10.9;70.5
78536;SHT31;67829;51.968;5.684;2024-01-25T15:27:04;10.9;70.4
78536;SHT31;67829;51.968;5.684;2024-01-25T15:29:37;10.9;70.5
78536;SHT31;67829;51.968;5.684;2024-01-25T15:32:06;10.8;71.0
78536;SHT31;67829;51.968;5.684;2024-01-25T15:34:35;10.8;71.2
78536;SHT31;67829;51.968;5.684;2024-01-25T15:37:03;10.8;71.2
78536;SHT31;67829;51.968;5.684;2024-01-25T15:39:32;10.8;71.4
78536;SHT31;67829;51.968;5.684;2024-01-25T15:42:00;10.8;71.5
78536;SHT31;67829;51.968;5.684;2024-01-25T15:44:29;10.8;71.3
78536;SHT31;67829;51.968;5.684;2024-01-25T15:46:58;10.8;71.5
78536;SHT31;67829;51.968;5.684;2024-01-25T15:49:26;10.7;71.5
78536;SHT31;67829;51.968;5.684;2024-01-25T15:51:55;10.7;71.7
78536;SHT31;67829;51.968;5.684;2024-01-25T15:54:23;10.7;71.7
78536;SHT31;67829;51.968;5.684;2024-01-25T15:56:52;10.7;71.8
78536;SHT31;67829;51.968;5.684;2024-01-25T15:59:20;10.7;72.0
78536;SHT31;67829;51.968;5.684;2024-01-25T16:01:49;10.7;72.2
78536;SHT31;67829;51.968;5.684;2024-01-25T16:04:17;10.7;72.4
78536;SHT31;67829;51.968;5.684;2024-01-25T16:06:46;10.7;72.3
78536;SHT31;67829;51.968;5.684;2024-01-25T16:09:14;10.7;72.4
78536;SHT31;67829;51.968;5.684;2024-01-25T16:11:42;10.7;72.6
78536;SHT31;67829;51.968;5.684;2024-01-25T16:14:11;10.7;72.7
78536;SHT31;67829;51.968;5.684;2024-01-25T16:16:39;10.7;72.8
78536;SHT31;67829;51.968;5.684;2024-01-25T16:19:10;10.7;72.8
78536;SHT31;67829;51.968;5.684;2024-01-25T16:21:38;10.7;73.0
78536;SHT31;67829;51.968;5.684;2024-01-25T16:24:07;10.7;73.1
78536;SHT31;67829;51.968;5.684;2024-01-25T16:26:35;10.7;73.2